Delray Beach, Florida
Current Conditions -  °F | °C
As of 8:50 AM on Monday 22 Dec 2014 (Local Time) from KBCT Reporting Station
Few Clouds Few Clouds  
Wind Chill: 75°   Ceiling: Unl
Heat Index: 75°   Visibility: 10mi
Dew Point: 68°   Wind: 7mph
Humidity: 78%   Direction: 210°SSW
Pressure: 30.04"   Gusts: NA
Location:  26.46°N, 80.07°W
Report Text: KBCT 221350Z 21006KT 10SM FEW100 24/20 A3004
Loading
Personal Weather Stations






























Interactive Weather Map New forecast layout! Learn more

10-Day Weather Forecast

Advertisements
Track Severe Weather on mobile